sensor_id;sensor_type;location;lat;lon;timestamp;temperature;humidity
9083;DHT22;4577;48.704;9.000;2023-05-07T00:02:24;16.40;72.90
9083;DHT22;4577;48.704;9.000;2023-05-07T00:04:50;16.30;72.70
9083;DHT22;4577;48.704;9.000;2023-05-07T00:07:17;16.30;72.40
9083;DHT22;4577;48.704;9.000;2023-05-07T00:09:43;16.30;72.70
9083;DHT22;4577;48.704;9.000;2023-05-07T00:12:09;16.30;72.80
9083;DHT22;4577;48.704;9.000;2023-05-07T00:14:35;16.20;73.30
9083;DHT22;4577;48.704;9.000;2023-05-07T00:17:01;16.20;73.50
9083;DHT22;4577;48.704;9.000;2023-05-07T00:19:27;16.20;73.50
9083;DHT22;4577;48.704;9.000;2023-05-07T00:21:53;16.20;73.10
9083;DHT22;4577;48.704;9.000;2023-05-07T00:24:22;16.10;73.80
9083;DHT22;4577;48.704;9.000;2023-05-07T00:26:47;16.10;73.30
9083;DHT22;4577;48.704;9.000;2023-05-07T00:29:13;16.10;73.50
9083;DHT22;4577;48.704;9.000;2023-05-07T00:31:38;16.10;73.80
9083;DHT22;4577;48.704;9.000;2023-05-07T00:34:04;16.10;73.70
9083;DHT22;4577;48.704;9.000;2023-05-07T00:36:30;16.10;73.90
9083;DHT22;4577;48.704;9.000;2023-05-07T00:38:57;16.10;74.20
9083;DHT22;4577;48.704;9.000;2023-05-07T00:41:24;16.10;74.50
9083;DHT22;4577;48.704;9.000;2023-05-07T00:43:50;16.10;74.40
9083;DHT22;4577;48.704;9.000;2023-05-07T00:46:17;16.00;74.30
9083;DHT22;4577;48.704;9.000;2023-05-07T00:48:45;16.00;74.20
9083;DHT22;4577;48.704;9.000;2023-05-07T00:51:11;16.00;74.50
9083;DHT22;4577;48.704;9.000;2023-05-07T00:53:37;16.00;74.40
9083;DHT22;4577;48.704;9.000;2023-05-07T00:56:03;16.00;74.30
9083;DHT22;4577;48.704;9.000;2023-05-07T00:58:30;15.90;74.30
9083;DHT22;4577;48.704;9.000;2023-05-07T01:00:56;15.90;74.30
9083;DHT22;4577;48.704;9.000;2023-05-07T01:03:21;15.90;74.50
9083;DHT22;4577;48.704;9.000;2023-05-07T01:05:48;15.90;74.60
9083;DHT22;4577;48.704;9.000;2023-05-07T01:08:15;15.90;74.50
9083;DHT22;4577;48.704;9.000;2023-05-07T01:10:42;15.80;74.40
9083;DHT22;4577;48.704;9.000;2023-05-07T01:13:12;15.80;74.40
9083;DHT22;4577;48.704;9.000;2023-05-07T01:15:39;15.60;74.70
9083;DHT22;4577;48.704;9.000;2023-05-07T01:18:06;15.60;74.90
9083;DHT22;4577;48.704;9.000;2023-05-07T01:20:32;15.60;75.20
9083;DHT22;4577;48.704;9.000;2023-05-07T01:23:00;15.70;75.20
9083;DHT22;4577;48.704;9.000;2023-05-07T01:25:26;15.70;75.10
9083;DHT22;4577;48.704;9.000;2023-05-07T01:27:52;15.60;75.20
9083;DHT22;4577;48.704;9.000;2023-05-07T01:30:18;15.60;75.40
9083;DHT22;4577;48.704;9.000;2023-05-07T01:33:01;15.60;75.40
9083;DHT22;4577;48.704;9.000;2023-05-07T01:35:34;15.60;75.20
9083;DHT22;4577;48.704;9.000;2023-05-07T01:38:01;15.60;75.50
9083;DHT22;4577;48.704;9.000;2023-05-07T01:40:29;15.50;75.40
9083;DHT22;4577;48.704;9.000;2023-05-07T01:42:55;15.50;75.60
9083;DHT22;4577;48.704;9.000;2023-05-07T01:45:21;15.40;75.70
9083;DHT22;4577;48.704;9.000;2023-05-07T01:47:48;15.40;76.10
9083;DHT22;4577;48.704;9.000;2023-05-07T01:50:16;15.40;76.20
9083;DHT22;4577;48.704;9.000;2023-05-07T01:52:43;15.40;76.10
9083;DHT22;4577;48.704;9.000;2023-05-07T01:55:09;15.40;76.30
9083;DHT22;4577;48.704;9.000;2023-05-07T01:57:35;15.40;76.50
9083;DHT22;4577;48.704;9.000;2023-05-07T02:00:01;15.40;77.10
9083;DHT22;4577;48.704;9.000;2023-05-07T02:02:28;15.40;77.00
9083;DHT22;4577;48.704;9.000;2023-05-07T02:04:53;15.40;76.70
9083;DHT22;4577;48.704;9.000;2023-05-07T02:07:19;15.30;76.80
9083;DHT22;4577;48.704;9.000;2023-05-07T02:09:45;15.30;77.20
9083;DHT22;4577;48.704;9.000;2023-05-07T02:12:10;15.30;77.20
9083;DHT22;4577;48.704;9.000;2023-05-07T02:14:36;15.30;77.30
9083;DHT22;4577;48.704;9.000;2023-05-07T02:17:02;15.40;77.10
9083;DHT22;4577;48.704;9.000;2023-05-07T02:19:27;15.30;77.00
9083;DHT22;4577;48.704;9.000;2023-05-07T02:21:53;15.30;77.70
9083;DHT22;4577;48.704;9.000;2023-05-07T02:24:19;15.30;77.30
9083;DHT22;4577;48.704;9.000;2023-05-07T02:26:45;15.20;77.30
9083;DHT22;4577;48.704;9.000;2023-05-07T02:29:11;15.10;77.00
9083;DHT22;4577;48.704;9.000;2023-05-07T02:31:36;15.10;77.60
9083;DHT22;4577;48.704;9.000;2023-05-07T02:34:02;15.10;77.90
9083;DHT22;4577;48.704;9.000;2023-05-07T02:36:28;15.10;78.10
9083;DHT22;4577;48.704;9.000;2023-05-07T02:38:54;15.10;78.40
9083;DHT22;4577;48.704;9.000;2023-05-07T02:41:20;15.10;79.40
9083;DHT22;4577;48.704;9.000;2023-05-07T02:43:46;15.10;78.40
9083;DHT22;4577;48.704;9.000;2023-05-07T02:46:11;15.10;78.40
9083;DHT22;4577;48.704;9.000;2023-05-07T02:48:37;15.10;78.40
9083;DHT22;4577;48.704;9.000;2023-05-07T02:51:04;15.10;78.50
9083;DHT22;4577;48.704;9.000;2023-05-07T02:53:31;15.00;78.60
9083;DHT22;4577;48.704;9.000;2023-05-07T02:55:58;15.00;78.80
9083;DHT22;4577;48.704;9.000;2023-05-07T02:58:24;15.10;79.20
9083;DHT22;4577;48.704;9.000;2023-05-07T03:00:50;15.10;79.20
9083;DHT22;4577;48.704;9.000;2023-05-07T03:03:16;15.10;79.20
9083;DHT22;4577;48.704;9.000;2023-05-07T03:05:42;15.10;79.30
9083;DHT22;4577;48.704;9.000;2023-05-07T03:08:08;15.10;79.20
9083;DHT22;4577;48.704;9.000;2023-05-07T03:10:35;15.00;79.00
9083;DHT22;4577;48.704;9.000;2023-05-07T03:13:01;15.00;79.00
9083;DHT22;4577;48.704;9.000;2023-05-07T03:15:27;15.00;78.80
9083;DHT22;4577;48.704;9.000;2023-05-07T03:17:53;14.90;79.10
9083;DHT22;4577;48.704;9.000;2023-05-07T03:20:18;14.90;79.20
9083;DHT22;4577;48.704;9.000;2023-05-07T03:22:44;14.80;79.10
9083;DHT22;4577;48.704;9.000;2023-05-07T03:25:10;14.80;79.20
9083;DHT22;4577;48.704;9.000;2023-05-07T03:27:36;14.70;79.40
9083;DHT22;4577;48.704;9.000;2023-05-07T03:30:02;14.70;79.90
9083;DHT22;4577;48.704;9.000;2023-05-07T03:32:27;14.70;79.50
9083;DHT22;4577;48.704;9.000;2023-05-07T03:34:53;14.60;79.10
9083;DHT22;4577;48.704;9.000;2023-05-07T03:37:19;14.60;79.10
9083;DHT22;4577;48.704;9.000;2023-05-07T03:39:45;14.60;78.80
9083;DHT22;4577;48.704;9.000;2023-05-07T03:42:10;14.70;78.90
9083;DHT22;4577;48.704;9.000;2023-05-07T03:44:36;14.70;78.90
9083;DHT22;4577;48.704;9.000;2023-05-07T03:47:02;14.70;78.70
9083;DHT22;4577;48.704;9.000;2023-05-07T03:49:28;14.60;78.40
9083;DHT22;4577;48.704;9.000;2023-05-07T03:51:54;14.50;78.40
9083;DHT22;4577;48.704;9.000;2023-05-07T03:54:19;14.50;78.80
9083;DHT22;4577;48.704;9.000;2023-05-07T03:56:45;14.40;79.40
9083;DHT22;4577;48.704;9.000;2023-05-07T03:59:12;14.30;79.90
9083;DHT22;4577;48.704;9.000;2023-05-07T04:01:38;14.30;80.50
9083;DHT22;4577;48.704;9.000;2023-05-07T04:04:04;14.30;80.90
9083;DHT22;4577;48.704;9.000;2023-05-07T04:06:30;14.20;80.80
9083;DHT22;4577;48.704;9.000;2023-05-07T04:08:56;14.20;80.90
9083;DHT22;4577;48.704;9.000;2023-05-07T04:11:22;14.10;80.90
9083;DHT22;4577;48.704;9.000;2023-05-07T04:13:47;14.10;81.10
9083;DHT22;4577;48.704;9.000;2023-05-07T04:16:13;14.10;81.10
9083;DHT22;4577;48.704;9.000;2023-05-07T04:18:39;14.10;81.10
9083;DHT22;4577;48.704;9.000;2023-05-07T04:21:05;14.10;81.10
9083;DHT22;4577;48.704;9.000;2023-05-07T04:23:31;14.00;81.80
9083;DHT22;4577;48.704;9.000;2023-05-07T04:25:57;14.00;81.00
9083;DHT22;4577;48.704;9.000;2023-05-07T04:28:23;14.10;80.90
9083;DHT22;4577;48.704;9.000;2023-05-07T04:30:49;14.10;81.10
9083;DHT22;4577;48.704;9.000;2023-05-07T04:33:15;14.10;81.30
9083;DHT22;4577;48.704;9.000;2023-05-07T04:35:43;14.10;81.30
9083;DHT22;4577;48.704;9.000;2023-05-07T04:38:09;14.20;81.40
9083;DHT22;4577;48.704;9.000;2023-05-07T04:40:38;14.20;81.50
9083;DHT22;4577;48.704;9.000;2023-05-07T04:43:04;14.20;81.40
9083;DHT22;4577;48.704;9.000;2023-05-07T04:45:30;14.10;81.70
9083;DHT22;4577;48.704;9.000;2023-05-07T04:47:55;14.20;81.60
9083;DHT22;4577;48.704;9.000;2023-05-07T04:50:21;14.20;81.50
9083;DHT22;4577;48.704;9.000;2023-05-07T04:52:49;14.20;81.60
9083;DHT22;4577;48.704;9.000;2023-05-07T04:55:15;14.20;81.70
9083;DHT22;4577;48.704;9.000;2023-05-07T04:57:41;14.20;81.60
9083;DHT22;4577;48.704;9.000;2023-05-07T05:00:07;14.10;81.30
9083;DHT22;4577;48.704;9.000;2023-05-07T05:02:39;14.20;81.30
9083;DHT22;4577;48.704;9.000;2023-05-07T05:05:05;14.20;81.40
9083;DHT22;4577;48.704;9.000;2023-05-07T05:07:31;14.20;81.50
9083;DHT22;4577;48.704;9.000;2023-05-07T05:09:57;14.20;81.30
9083;DHT22;4577;48.704;9.000;2023-05-07T05:12:23;14.20;81.50
9083;DHT22;4577;48.704;9.000;2023-05-07T05:14:48;14.20;81.90
9083;DHT22;4577;48.704;9.000;2023-05-07T05:17:14;14.30;82.00
9083;DHT22;4577;48.704;9.000;2023-05-07T05:19:40;14.40;81.70
9083;DHT22;4577;48.704;9.000;2023-05-07T05:22:06;14.40;81.20
9083;DHT22;4577;48.704;9.000;2023-05-07T05:24:31;14.40;80.90
9083;DHT22;4577;48.704;9.000;2023-05-07T05:26:57;14.50;80.90
9083;DHT22;4577;48.704;9.000;2023-05-07T05:29:25;14.50;80.90
9083;DHT22;4577;48.704;9.000;2023-05-07T05:31:50;14.50;80.90
9083;DHT22;4577;48.704;9.000;2023-05-07T05:34:16;14.50;81.40
9083;DHT22;4577;48.704;9.000;2023-05-07T05:36:43;14.60;81.30
9083;DHT22;4577;48.704;9.000;2023-05-07T05:39:08;14.60;80.10
9083;DHT22;4577;48.704;9.000;2023-05-07T05:41:34;14.60;80.70
9083;DHT22;4577;48.704;9.000;2023-05-07T05:44:00;14.60;80.80
9083;DHT22;4577;48.704;9.000;2023-05-07T05:46:25;14.50;80.20
9083;DHT22;4577;48.704;9.000;2023-05-07T05:48:51;14.60;80.30
9083;DHT22;4577;48.704;9.000;2023-05-07T05:51:17;14.60;80.50
9083;DHT22;4577;48.704;9.000;2023-05-07T05:53:42;14.60;80.40
9083;DHT22;4577;48.704;9.000;2023-05-07T05:56:08;14.50;80.10
9083;DHT22;4577;48.704;9.000;2023-05-07T05:58:34;14.40;80.50
9083;DHT22;4577;48.704;9.000;2023-05-07T06:00:59;14.50;80.70
9083;DHT22;4577;48.704;9.000;2023-05-07T06:03:27;14.50;80.90
9083;DHT22;4577;48.704;9.000;2023-05-07T06:05:53;14.60;80.90
9083;DHT22;4577;48.704;9.000;2023-05-07T06:08:19;14.60;80.80
9083;DHT22;4577;48.704;9.000;2023-05-07T06:10:45;14.60;81.10
9083;DHT22;4577;48.704;9.000;2023-05-07T06:13:11;14.70;81.00
9083;DHT22;4577;48.704;9.000;2023-05-07T06:15:36;14.70;81.00
9083;DHT22;4577;48.704;9.000;2023-05-07T06:18:02;14.70;80.80
9083;DHT22;4577;48.704;9.000;2023-05-07T06:20:28;14.60;81.00
9083;DHT22;4577;48.704;9.000;2023-05-07T06:22:53;14.60;81.60
9083;DHT22;4577;48.704;9.000;2023-05-07T06:25:19;14.50;81.90
9083;DHT22;4577;48.704;9.000;2023-05-07T06:27:45;14.50;81.90
9083;DHT22;4577;48.704;9.000;2023-05-07T06:30:11;14.50;82.60
9083;DHT22;4577;48.704;9.000;2023-05-07T06:32:37;14.50;83.30
9083;DHT22;4577;48.704;9.000;2023-05-07T06:35:02;14.50;83.50
9083;DHT22;4577;48.704;9.000;2023-05-07T06:37:28;14.50;83.70
9083;DHT22;4577;48.704;9.000;2023-05-07T06:39:54;14.50;84.00
9083;DHT22;4577;48.704;9.000;2023-05-07T06:42:19;14.50;84.40
9083;DHT22;4577;48.704;9.000;2023-05-07T06:44:45;14.50;84.60
9083;DHT22;4577;48.704;9.000;2023-05-07T06:47:11;14.50;84.50
9083;DHT22;4577;48.704;9.000;2023-05-07T06:49:36;14.60;85.00
9083;DHT22;4577;48.704;9.000;2023-05-07T06:52:02;14.60;85.10
9083;DHT22;4577;48.704;9.000;2023-05-07T06:54:28;14.60;85.40
9083;DHT22;4577;48.704;9.000;2023-05-07T06:56:54;14.70;85.50
9083;DHT22;4577;48.704;9.000;2023-05-07T06:59:20;14.80;86.00
9083;DHT22;4577;48.704;9.000;2023-05-07T07:01:46;14.80;85.90
9083;DHT22;4577;48.704;9.000;2023-05-07T07:04:11;14.90;86.00
9083;DHT22;4577;48.704;9.000;2023-05-07T07:06:37;15.00;86.60
9083;DHT22;4577;48.704;9.000;2023-05-07T07:11:29;15.20;86.10
9083;DHT22;4577;48.704;9.000;2023-05-07T07:13:54;15.30;85.70
9083;DHT22;4577;48.704;9.000;2023-05-07T07:16:21;15.50;85.70
9083;DHT22;4577;48.704;9.000;2023-05-07T07:18:47;15.50;85.70
9083;DHT22;4577;48.704;9.000;2023-05-07T07:21:12;15.70;86.10
9083;DHT22;4577;48.704;9.000;2023-05-07T07:23:38;15.90;84.70
9083;DHT22;4577;48.704;9.000;2023-05-07T07:26:04;16.00;84.00
9083;DHT22;4577;48.704;9.000;2023-05-07T07:28:31;16.10;83.60
9083;DHT22;4577;48.704;9.000;2023-05-07T07:30:57;16.20;83.10
9083;DHT22;4577;48.704;9.000;2023-05-07T07:33:22;16.30;82.80
9083;DHT22;4577;48.704;9.000;2023-05-07T07:35:48;16.40;82.00
9083;DHT22;4577;48.704;9.000;2023-05-07T07:38:14;16.50;81.40
9083;DHT22;4577;48.704;9.000;2023-05-07T07:40:39;16.60;81.90
9083;DHT22;4577;48.704;9.000;2023-05-07T07:43:05;16.60;81.50
9083;DHT22;4577;48.704;9.000;2023-05-07T07:45:31;16.70;80.80
9083;DHT22;4577;48.704;9.000;2023-05-07T07:47:57;16.60;81.10
9083;DHT22;4577;48.704;9.000;2023-05-07T07:50:22;16.60;81.20
9083;DHT22;4577;48.704;9.000;2023-05-07T07:52:48;16.70;80.80
9083;DHT22;4577;48.704;9.000;2023-05-07T07:55:14;16.70;80.50
9083;DHT22;4577;48.704;9.000;2023-05-07T07:57:43;16.70;80.50
9083;DHT22;4577;48.704;9.000;2023-05-07T08:00:09;16.70;80.40
9083;DHT22;4577;48.704;9.000;2023-05-07T08:02:35;16.70;80.20
9083;DHT22;4577;48.704;9.000;2023-05-07T08:05:00;16.70;81.10
9083;DHT22;4577;48.704;9.000;2023-05-07T08:07:26;16.70;81.50
9083;DHT22;4577;48.704;9.000;2023-05-07T08:09:52;16.80;81.90
9083;DHT22;4577;48.704;9.000;2023-05-07T08:12:18;16.80;81.80
9083;DHT22;4577;48.704;9.000;2023-05-07T08:14:43;16.90;81.90
9083;DHT22;4577;48.704;9.000;2023-05-07T08:17:09;17.00;81.80
9083;DHT22;4577;48.704;9.000;2023-05-07T08:19:36;17.10;81.50
9083;DHT22;4577;48.704;9.000;2023-05-07T08:22:02;17.10;80.70
9083;DHT22;4577;48.704;9.000;2023-05-07T08:24:29;17.10;80.60
9083;DHT22;4577;48.704;9.000;2023-05-07T08:26:55;17.10;80.00
9083;DHT22;4577;48.704;9.000;2023-05-07T08:29:21;17.20;78.00
9083;DHT22;4577;48.704;9.000;2023-05-07T08:31:47;17.20;78.20
9083;DHT22;4577;48.704;9.000;2023-05-07T08:34:12;17.20;78.10
9083;DHT22;4577;48.704;9.000;2023-05-07T08:36:38;17.20;78.10
9083;DHT22;4577;48.704;9.000;2023-05-07T08:39:03;17.60;78.20
9083;DHT22;4577;48.704;9.000;2023-05-07T08:41:30;17.40;78.20
9083;DHT22;4577;48.704;9.000;2023-05-07T08:43:58;17.30;77.90
9083;DHT22;4577;48.704;9.000;2023-05-07T08:46:25;17.40;78.00
9083;DHT22;4577;48.704;9.000;2023-05-07T08:48:52;17.50;77.70
9083;DHT22;4577;48.704;9.000;2023-05-07T08:51:19;17.50;78.30
9083;DHT22;4577;48.704;9.000;2023-05-07T08:53:47;17.70;76.60
9083;DHT22;4577;48.704;9.000;2023-05-07T08:56:14;17.60;76.30
9083;DHT22;4577;48.704;9.000;2023-05-07T08:58:44;17.60;77.30
9083;DHT22;4577;48.704;9.000;2023-05-07T09:01:14;17.60;77.40
9083;DHT22;4577;48.704;9.000;2023-05-07T09:03:41;17.70;76.90
9083;DHT22;4577;48.704;9.000;2023-05-07T09:06:09;17.70;76.20
9083;DHT22;4577;48.704;9.000;2023-05-07T09:08:36;17.70;76.60
9083;DHT22;4577;48.704;9.000;2023-05-07T09:11:02;17.70;77.40
9083;DHT22;4577;48.704;9.000;2023-05-07T09:13:28;17.70;77.40
9083;DHT22;4577;48.704;9.000;2023-05-07T09:15:54;17.70;76.90
9083;DHT22;4577;48.704;9.000;2023-05-07T09:18:20;17.80;77.00
9083;DHT22;4577;48.704;9.000;2023-05-07T09:20:46;18.40;75.30
9083;DHT22;4577;48.704;9.000;2023-05-07T09:23:12;18.00;75.40
9083;DHT22;4577;48.704;9.000;2023-05-07T09:25:37;18.00;75.40
9083;DHT22;4577;48.704;9.000;2023-05-07T09:28:04;18.10;76.60
9083;DHT22;4577;48.704;9.000;2023-05-07T09:30:33;18.30;74.80
9083;DHT22;4577;48.704;9.000;2023-05-07T09:33:00;18.40;74.50
9083;DHT22;4577;48.704;9.000;2023-05-07T09:35:26;18.40;75.70
9083;DHT22;4577;48.704;9.000;2023-05-07T09:37:56;18.50;75.00
9083;DHT22;4577;48.704;9.000;2023-05-07T09:40:24;18.50;74.00
9083;DHT22;4577;48.704;9.000;2023-05-07T09:42:51;18.70;74.20
9083;DHT22;4577;48.704;9.000;2023-05-07T09:45:25;18.90;73.50
9083;DHT22;4577;48.704;9.000;2023-05-07T09:47:54;18.90;73.70
9083;DHT22;4577;48.704;9.000;2023-05-07T09:50:29;18.90;74.40
9083;DHT22;4577;48.704;9.000;2023-05-07T09:52:56;19.00;73.60
9083;DHT22;4577;48.704;9.000;2023-05-07T09:55:22;19.10;73.50
9083;DHT22;4577;48.704;9.000;2023-05-07T09:57:52;19.10;72.80
9083;DHT22;4577;48.704;9.000;2023-05-07T10:00:20;19.00;73.00
9083;DHT22;4577;48.704;9.000;2023-05-07T10:02:51;19.60;72.60
9083;DHT22;4577;48.704;9.000;2023-05-07T10:05:21;19.00;70.60
9083;DHT22;4577;48.704;9.000;2023-05-07T10:07:47;19.00;71.20
9083;DHT22;4577;48.704;9.000;2023-05-07T10:10:14;19.00;71.50
9083;DHT22;4577;48.704;9.000;2023-05-07T10:12:41;19.20;71.90
9083;DHT22;4577;48.704;9.000;2023-05-07T10:15:07;19.40;72.40
9083;DHT22;4577;48.704;9.000;2023-05-07T10:17:36;19.50;70.60
9083;DHT22;4577;48.704;9.000;2023-05-07T10:20:02;19.70;69.30
9083;DHT22;4577;48.704;9.000;2023-05-07T10:22:34;19.80;70.00
9083;DHT22;4577;48.704;9.000;2023-05-07T10:25:03;20.00;69.90
9083;DHT22;4577;48.704;9.000;2023-05-07T10:27:32;20.10;69.50
9083;DHT22;4577;48.704;9.000;2023-05-07T10:32:49;20.10;67.70
9083;DHT22;4577;48.704;9.000;2023-05-07T10:35:23;20.20;68.20
9083;DHT22;4577;48.704;9.000;2023-05-07T10:37:50;20.30;67.70
9083;DHT22;4577;48.704;9.000;2023-05-07T10:40:16;20.30;66.80
9083;DHT22;4577;48.704;9.000;2023-05-07T10:43:05;20.40;66.30
9083;DHT22;4577;48.704;9.000;2023-05-07T10:45:31;20.50;65.40
9083;DHT22;4577;48.704;9.000;2023-05-07T10:48:10;20.70;66.40
9083;DHT22;4577;48.704;9.000;2023-05-07T10:50:38;20.80;66.00
9083;DHT22;4577;48.704;9.000;2023-05-07T10:58:31;20.90;64.30
9083;DHT22;4577;48.704;9.000;2023-05-07T11:01:01;20.90;64.60
9083;DHT22;4577;48.704;9.000;2023-05-07T11:03:28;20.80;64.20
9083;DHT22;4577;48.704;9.000;2023-05-07T11:06:15;20.80;65.80
9083;DHT22;4577;48.704;9.000;2023-05-07T11:11:18;20.80;64.80
9083;DHT22;4577;48.704;9.000;2023-05-07T11:13:46;20.60;66.10
9083;DHT22;4577;48.704;9.000;2023-05-07T11:16:23;20.70;66.90
9083;DHT22;4577;48.704;9.000;2023-05-07T11:18:55;20.70;66.60
9083;DHT22;4577;48.704;9.000;2023-05-07T11:21:40;20.60;65.30
9083;DHT22;4577;48.704;9.000;2023-05-07T11:24:07;20.60;63.60
9083;DHT22;4577;48.704;9.000;2023-05-07T11:26:44;20.50;60.70
9083;DHT22;4577;48.704;9.000;2023-05-07T11:29:16;20.50;60.00
9083;DHT22;4577;48.704;9.000;2023-05-07T11:31:42;20.40;59.20
9083;DHT22;4577;48.704;9.000;2023-05-07T11:34:08;20.30;59.70
9083;DHT22;4577;48.704;9.000;2023-05-07T11:36:34;20.20;60.50
9083;DHT22;4577;48.704;9.000;2023-05-07T11:39:00;20.10;60.90
9083;DHT22;4577;48.704;9.000;2023-05-07T11:41:36;20.10;62.20
9083;DHT22;4577;48.704;9.000;2023-05-07T11:44:04;20.20;66.80
9083;DHT22;4577;48.704;9.000;2023-05-07T11:46:30;20.20;67.70
9083;DHT22;4577;48.704;9.000;2023-05-07T11:48:56;20.10;72.60
9083;DHT22;4577;48.704;9.000;2023-05-07T11:51:24;19.90;75.20
9083;DHT22;4577;48.704;9.000;2023-05-07T11:53:51;19.80;76.00
9083;DHT22;4577;48.704;9.000;2023-05-07T11:56:18;19.70;75.90
9083;DHT22;4577;48.704;9.000;2023-05-07T11:58:44;19.60;78.80
9083;DHT22;4577;48.704;9.000;2023-05-07T12:01:11;19.50;79.00
9083;DHT22;4577;48.704;9.000;2023-05-07T12:03:40;19.40;78.00
9083;DHT22;4577;48.704;9.000;2023-05-07T12:06:08;19.20;74.30
9083;DHT22;4577;48.704;9.000;2023-05-07T12:08:38;18.90;67.80
9083;DHT22;4577;48.704;9.000;2023-05-07T12:11:07;18.50;67.90
9083;DHT22;4577;48.704;9.000;2023-05-07T12:13:34;18.30;66.30
9083;DHT22;4577;48.704;9.000;2023-05-07T12:16:00;18.10;67.80
9083;DHT22;4577;48.704;9.000;2023-05-07T12:18:28;18.00;64.30
9083;DHT22;4577;48.704;9.000;2023-05-07T12:20:55;18.00;67.50
9083;DHT22;4577;48.704;9.000;2023-05-07T12:23:22;18.10;68.90
9083;DHT22;4577;48.704;9.000;2023-05-07T12:25:48;18.10;70.60
9083;DHT22;4577;48.704;9.000;2023-05-07T12:28:18;18.00;72.00
9083;DHT22;4577;48.704;9.000;2023-05-07T12:30:46;18.10;74.20
9083;DHT22;4577;48.704;9.000;2023-05-07T12:33:15;18.20;74.80
9083;DHT22;4577;48.704;9.000;2023-05-07T12:35:42;18.20;75.40
9083;DHT22;4577;48.704;9.000;2023-05-07T12:38:13;18.30;74.90
9083;DHT22;4577;48.704;9.000;2023-05-07T12:40:41;18.40;77.10
9083;DHT22;4577;48.704;9.000;2023-05-07T12:43:07;18.40;76.60
9083;DHT22;4577;48.704;9.000;2023-05-07T12:45:40;18.50;76.20
9083;DHT22;4577;48.704;9.000;2023-05-07T12:48:09;18.50;78.30
9083;DHT22;4577;48.704;9.000;2023-05-07T12:50:35;18.30;75.10
9083;DHT22;4577;48.704;9.000;2023-05-07T12:53:03;18.20;74.90
9083;DHT22;4577;48.704;9.000;2023-05-07T12:55:31;18.20;75.70
9083;DHT22;4577;48.704;9.000;2023-05-07T12:58:00;18.30;75.40
9083;DHT22;4577;48.704;9.000;2023-05-07T13:00:53;18.30;76.50
9083;DHT22;4577;48.704;9.000;2023-05-07T13:03:24;18.30;75.90
9083;DHT22;4577;48.704;9.000;2023-05-07T13:05:50;18.40;75.00
9083;DHT22;4577;48.704;9.000;2023-05-07T13:08:36;18.30;73.70
9083;DHT22;4577;48.704;9.000;2023-05-07T13:11:03;18.30;73.80
9083;DHT22;4577;48.704;9.000;2023-05-07T13:13:30;18.30;75.10
9083;DHT22;4577;48.704;9.000;2023-05-07T13:15:56;18.40;74.30
9083;DHT22;4577;48.704;9.000;2023-05-07T13:18:23;18.40;74.60
9083;DHT22;4577;48.704;9.000;2023-05-07T13:20:49;18.50;76.80
9083;DHT22;4577;48.704;9.000;2023-05-07T13:23:15;18.50;77.00
9083;DHT22;4577;48.704;9.000;2023-05-07T13:25:41;18.40;75.70
9083;DHT22;4577;48.704;9.000;2023-05-07T13:28:06;18.30;74.80
9083;DHT22;4577;48.704;9.000;2023-05-07T13:30:32;18.10;74.20
9083;DHT22;4577;48.704;9.000;2023-05-07T13:32:58;18.10;74.10
9083;DHT22;4577;48.704;9.000;2023-05-07T13:35:23;18.00;74.70
9083;DHT22;4577;48.704;9.000;2023-05-07T13:37:49;18.00;76.40
9083;DHT22;4577;48.704;9.000;2023-05-07T13:40:15;18.10;77.50
9083;DHT22;4577;48.704;9.000;2023-05-07T13:42:41;18.20;78.50
9083;DHT22;4577;48.704;9.000;2023-05-07T13:45:07;18.20;79.10
9083;DHT22;4577;48.704;9.000;2023-05-07T13:47:33;18.20;78.70
9083;DHT22;4577;48.704;9.000;2023-05-07T13:49:59;18.20;79.70
9083;DHT22;4577;48.704;9.000;2023-05-07T13:52:25;18.20;80.80
9083;DHT22;4577;48.704;9.000;2023-05-07T13:54:51;18.20;81.60
9083;DHT22;4577;48.704;9.000;2023-05-07T13:57:18;18.20;83.30
9083;DHT22;4577;48.704;9.000;2023-05-07T13:59:43;18.20;85.10
9083;DHT22;4577;48.704;9.000;2023-05-07T14:02:09;18.30;86.10
9083;DHT22;4577;48.704;9.000;2023-05-07T14:04:35;18.30;87.10
9083;DHT22;4577;48.704;9.000;2023-05-07T14:07:00;18.20;87.50
9083;DHT22;4577;48.704;9.000;2023-05-07T14:09:26;18.20;88.00
9083;DHT22;4577;48.704;9.000;2023-05-07T14:11:52;18.20;89.20
9083;DHT22;4577;48.704;9.000;2023-05-07T14:14:18;18.10;89.80
9083;DHT22;4577;48.704;9.000;2023-05-07T14:16:44;18.20;90.00
9083;DHT22;4577;48.704;9.000;2023-05-07T14:19:11;18.40;88.90
9083;DHT22;4577;48.704;9.000;2023-05-07T14:21:37;18.20;88.90
9083;DHT22;4577;48.704;9.000;2023-05-07T14:24:03;18.00;88.30
9083;DHT22;4577;48.704;9.000;2023-05-07T14:26:28;18.00;88.50
9083;DHT22;4577;48.704;9.000;2023-05-07T14:28:54;18.00;88.90
9083;DHT22;4577;48.704;9.000;2023-05-07T14:31:23;18.10;89.40
9083;DHT22;4577;48.704;9.000;2023-05-07T14:33:48;18.10;89.10
9083;DHT22;4577;48.704;9.000;2023-05-07T14:36:19;18.10;89.00
9083;DHT22;4577;48.704;9.000;2023-05-07T14:38:52;18.10;87.90
9083;DHT22;4577;48.704;9.000;2023-05-07T14:41:19;18.10;87.80
9083;DHT22;4577;48.704;9.000;2023-05-07T14:43:46;18.10;88.20
9083;DHT22;4577;48.704;9.000;2023-05-07T14:46:19;18.20;88.70
9083;DHT22;4577;48.704;9.000;2023-05-07T14:48:45;18.20;88.80
9083;DHT22;4577;48.704;9.000;2023-05-07T14:51:13;18.10;89.00
9083;DHT22;4577;48.704;9.000;2023-05-07T14:53:41;17.90;89.80
9083;DHT22;4577;48.704;9.000;2023-05-07T14:56:07;18.10;90.20
9083;DHT22;4577;48.704;9.000;2023-05-07T14:58:33;18.10;90.90
9083;DHT22;4577;48.704;9.000;2023-05-07T15:01:00;18.20;90.70
9083;DHT22;4577;48.704;9.000;2023-05-07T15:03:26;18.10;90.40
9083;DHT22;4577;48.704;9.000;2023-05-07T15:05:52;18.10;90.50
9083;DHT22;4577;48.704;9.000;2023-05-07T15:08:18;18.10;90.50
9083;DHT22;4577;48.704;9.000;2023-05-07T15:10:43;18.00;90.60
9083;DHT22;4577;48.704;9.000;2023-05-07T15:13:10;18.00;91.10
9083;DHT22;4577;48.704;9.000;2023-05-07T15:15:36;18.00;91.30
9083;DHT22;4577;48.704;9.000;2023-05-07T15:18:03;17.90;90.90
9083;DHT22;4577;48.704;9.000;2023-05-07T15:20:29;17.90;91.10
9083;DHT22;4577;48.704;9.000;2023-05-07T15:22:55;17.90;92.00
9083;DHT22;4577;48.704;9.000;2023-05-07T15:25:21;17.90;91.50
9083;DHT22;4577;48.704;9.000;2023-05-07T15:27:47;17.90;91.20
9083;DHT22;4577;48.704;9.000;2023-05-07T15:30:13;18.00;91.30
9083;DHT22;4577;48.704;9.000;2023-05-07T15:32:40;18.00;91.50
9083;DHT22;4577;48.704;9.000;2023-05-07T15:35:07;18.10;91.50
9083;DHT22;4577;48.704;9.000;2023-05-07T15:37:33;18.20;91.70
9083;DHT22;4577;48.704;9.000;2023-05-07T15:39:59;18.20;91.60
9083;DHT22;4577;48.704;9.000;2023-05-07T15:42:25;18.20;91.10
9083;DHT22;4577;48.704;9.000;2023-05-07T15:44:51;18.20;91.70
9083;DHT22;4577;48.704;9.000;2023-05-07T15:47:17;18.20;91.00
9083;DHT22;4577;48.704;9.000;2023-05-07T15:49:43;18.20;90.50
9083;DHT22;4577;48.704;9.000;2023-05-07T15:52:08;17.90;90.60
9083;DHT22;4577;48.704;9.000;2023-05-07T15:54:39;17.70;90.30
9083;DHT22;4577;48.704;9.000;2023-05-07T15:57:05;17.50;91.60
9083;DHT22;4577;48.704;9.000;2023-05-07T15:59:32;17.50;91.60
9083;DHT22;4577;48.704;9.000;2023-05-07T16:01:58;17.40;92.30
9083;DHT22;4577;48.704;9.000;2023-05-07T16:04:24;17.30;92.40
9083;DHT22;4577;48.704;9.000;2023-05-07T16:06:49;17.40;91.90
9083;DHT22;4577;48.704;9.000;2023-05-07T16:09:15;17.40;91.20
9083;DHT22;4577;48.704;9.000;2023-05-07T16:11:41;17.40;91.40
9083;DHT22;4577;48.704;9.000;2023-05-07T16:14:07;17.40;90.70